Modjeska Canyon, California
Current Conditions -  °F | °C
As of 2:56 AM on Saturday 25 Oct 2014 (Local Time) from KAJO Reporting Station
Clear Clear  
Wind Chill: 52°   Ceiling: Unl
Heat Index: 52°   Visibility: 10mi
Dew Point: 42°   Wind: 0mph
Humidity: 69%   Direction: NA
Pressure: 30.02"   Gusts: NA
Location:  33.7477°N, 117.629°W
Report Text: KAJO 250956Z AUTO 00000KT 10SM CLR 11/06 A3002 RMK AO2 T01110055 SLP157 $
Loading
Personal Weather Stations






























Interactive Weather Map
Tropical Storm Tracking
New forecast layout! Learn more

10-Day Weather Forecast

Advertisements
Track Severe Weather on mobile